Date,TemperatureHighF,TemperatureAvgF,TemperatureLowF,DewpointHighF,DewpointAvgF,DewpointLowF,HumidityHigh,HumidityAvg,HumidityLow,PressureMaxIn,PressureMinIn,WindSpeedMaxMPH,WindSpeedAvgMPH,GustSpeedMaxMPH,PrecipitationSumIn
2013-2-1,43.4,23.2,1.0,33.4,14.4,-4.9,83,69,50,30.56,30.11,12,6,19,0.01
2013-2-2,48.7,34.5,23.5,36.8,26.5,20.2,88,74,44,30.25,30.10,21,8,28,0.01
2013-2-3,55.4,36.6,19.1,29.6,22.5,15.0,87,61,27,30.29,27.67,21,8,24,0.00
2013-2-4,40.3,28.0,22.8,28.2,23.0,19.3,89,82,60,30.06,29.85,14,5,17,0.00
2013-2-5,47.9,38.6,30.8,29.0,25.2,19.8,81,60,35,30.08,29.88,12,6,19,0.00
2013-2-6,52.2,40.8,32.8,33.1,29.2,24.6,74,64,47,30.05,29.83,13,5,16,0.00
2013-2-7,37.4,29.8,25.0,29.6,25.5,21.9,90,84,72,30.32,29.99,11,6,15,0.00
2013-2-8,37.7,28.9,23.5,29.3,24.6,20.7,91,84,67,30.34,30.07,13,7,19,0.00
2013-2-9,54.9,39.5,29.1,38.4,31.3,25.4,87,74,38,30.07,29.59,15,9,24,0.01
2013-2-10,39.1,31.9,26.5,35.3,29.0,23.3,92,89,84,29.91,29.29,25,12,31,0.15
2013-2-11,27.9,24.0,15.6,24.3,18.2,11.9,88,79,71,30.22,29.91,24,9,41,0.00
2013-2-12,38.7,27.6,15.6,25.4,19.3,10.8,86,72,53,30.20,30.00,12,7,15,0.00
2013-2-13,50.1,36.7,24.9,30.9,26.1,19.9,83,67,41,30.00,29.78,16,8,19,0.00
2013-2-14,39.3,30.6,17.0,30.6,23.4,12.7,87,75,52,30.39,29.89,22,11,34,0.00
2013-2-15,29.2,20.2,8.3,22.0,14.7,4.2,87,79,66,30.48,30.40,15,5,21,0.00
2013-2-16,42.9,27.0,7.2,30.5,21.0,3.4,86,78,60,30.42,30.04,12,3,17,0.00
2013-2-17,63.4,40.5,23.6,32.8,23.3,17.4,87,57,18,30.04,29.58,19,5,24,0.00
2013-2-18,40.9,30.0,16.2,31.5,20.4,9.7,77,67,54,30.19,29.66,19,13,29,0.00
2013-2-19,21.5,12.2,5.3,9.7,1.2,-3.2,78,63,35,30.51,30.20,13,7,19,0.00
2013-2-20,26.6,14.0,4.3,14.3,3.3,-1.9,84,64,34,30.50,30.30,8,5,14,0.00
2013-2-21,20.7,18.7,15.8,15.4,12.7,8.9,87,77,66,30.32,30.05,11,6,24,0.00
2013-2-22,19.5,13.7,5.2,14.4,9.5,1.4,86,83,78,30.14,30.05,10,5,15,0.00
2013-2-23,36.1,17.7,3.4,29.3,12.4,-1.2,85,80,67,30.10,29.88,9,2,11,0.09
2013-2-25,28.4,22.0,17.7,22.4,17.9,14.4,88,84,77,30.06,30.02,3,1,4,0.00
2013-2-26,26.1,22.8,18.5,23.4,20.0,15.3,90,89,87,30.10,29.97,9,4,13,0.00
2013-2-27,34.8,28.2,21.4,26.7,22.8,18.1,90,80,70,30.25,30.09,14,9,22,0.00
2013-2-28,29.4,26.3,24.0,24.1,21.7,19.8,87,83,80,30.35,30.24,15,9,20,0.00